Time;durP1;ratioP1;P1;durP2;ratioP2;P2;SDS_P1;SDS_P2;PMS_P1;PMS_P2;Temp;Humidity;BMP_temperature;BMP_pressure;BME280_temperature;BME280_humidity;BME280_pressure;Samples;Min_cycle;Max_cycle;Signal;HPM_P1;HPM_P2
2021/01/08 00:02:13;;;;;;;44.38;24.08;;;;;;;;;;5093256;28;20382;-76
2021/01/08 00:04:39;;;;;;;45.22;25.10;;;;;;;;;;5093301;28;20031;-76
2021/01/08 00:07:05;;;;;;;38.65;20.70;;;;;;;;;;5075276;28;20109;-76
2021/01/08 00:09:31;;;;;;;38.70;19.77;;;;;;;;;;5075146;28;20031;-76
2021/01/08 00:11:58;;;;;;;34.70;19.27;;;;;;;;;;5093265;28;20040;-76
2021/01/08 00:14:24;;;;;;;37.88;20.83;;;;;;;;;;5093071;28;20100;-76
2021/01/08 00:16:56;;;;;;;39.83;21.27;;;;;;;;;;5093199;28;20497;-77
2021/01/08 00:19:28;;;;;;;41.78;21.77;;;;;;;;;;5096888;28;20032;-77
2021/01/08 00:21:57;;;;;;;42.75;22.15;;;;;;;;;;5096870;28;20501;-76
2021/01/08 00:24:23;;;;;;;38.40;21.02;;;;;;;;;;5096917;28;20035;-77
2021/01/08 00:26:49;;;;;;;33.63;18.20;;;;;;;;;;5078594;28;20398;-77
2021/01/08 00:29:16;;;;;;;35.03;18.80;;;;;;;;;;5079184;28;20478;-77
2021/01/08 00:31:43;;;;;;;37.10;18.05;;;;;;;;;;5096659;28;20059;-77
2021/01/08 00:34:09;;;;;;;35.78;18.70;;;;;;;;;;5096795;28;20046;-77
2021/01/08 00:36:35;;;;;;;36.85;18.58;;;;;;;;;;5078384;28;20509;-77
2021/01/08 00:39:04;;;;;;;35.55;18.55;;;;;;;;;;5078496;28;20067;-77
2021/01/08 00:41:33;;;;;;;34.75;18.60;;;;;;;;;;5078634;28;20039;-76
2021/01/08 00:43:59;;;;;;;39.85;20.08;;;;;;;;;;5096348;28;20032;-76
2021/01/08 00:46:32;;;;;;;40.05;19.98;;;;;;;;;;5096707;28;20028;-76
2021/01/08 00:48:57;;;;;;;39.85;20.65;;;;;;;;;;5078352;28;20509;-75
2021/01/08 00:51:23;;;;;;;42.63;21.58;;;;;;;;;;5078372;28;20028;-75
2021/01/08 00:53:49;;;;;;;41.55;19.50;;;;;;;;;;5078312;28;20036;-77
2021/01/08 00:56:18;;;;;;;39.08;21.30;;;;;;;;;;5096355;28;20081;-76
2021/01/08 00:58:46;;;;;;;40.55;19.88;;;;;;;;;;5077741;28;20036;-75
2021/01/08 01:01:12;;;;;;;35.90;18.23;;;;;;;;;;5096165;28;20116;-76
2021/01/08 01:03:38;;;;;;;35.90;18.65;;;;;;;;;;5096220;28;20047;-76
2021/01/08 01:06:03;;;;;;;39.20;18.95;;;;;;;;;;5096151;28;20020;-75
2021/01/08 01:08:32;;;;;;;35.80;19.13;;;;;;;;;;5077824;28;20032;-76
2021/01/08 01:11:05;;;;;;;39.80;18.95;;;;;;;;;;5096021;28;20039;-75
2021/01/08 01:13:39;;;;;;;40.20;18.65;;;;;;;;;;5096048;28;20032;-75
2021/01/08 01:16:14;;;;;;;37.42;18.95;;;;;;;;;;5095913;28;20093;-76
2021/01/08 01:18:49;;;;;;;36.22;18.38;;;;;;;;;;5095750;28;20027;-76
2021/01/08 01:21:16;;;;;;;39.75;19.17;;;;;;;;;;5095813;28;20528;-76
2021/01/08 01:23:43;;;;;;;34.28;18.50;;;;;;;;;;5095922;28;20467;-76
2021/01/08 01:26:09;;;;;;;36.67;18.52;;;;;;;;;;5095799;28;20043;-77
2021/01/08 01:28:35;;;;;;;35.58;19.55;;;;;;;;;;5095384;28;20028;-76
2021/01/08 01:31:01;;;;;;;37.72;18.60;;;;;;;;;;5095378;28;20048;-76
2021/01/08 01:33:27;;;;;;;35.70;18.27;;;;;;;;;;5077267;28;20079;-76
2021/01/08 01:35:52;;;;;;;34.03;18.02;;;;;;;;;;5095465;28;20101;-76
2021/01/08 01:38:18;;;;;;;34.33;18.23;;;;;;;;;;5095135;28;20024;-76
2021/01/08 01:40:44;;;;;;;35.92;18.08;;;;;;;;;;5095407;28;20431;-75
2021/01/08 01:43:09;;;;;;;33.90;17.63;;;;;;;;;;5095420;28;20055;-74
2021/01/08 01:45:35;;;;;;;33.47;17.83;;;;;;;;;;5095380;28;20036;-74
2021/01/08 01:48:00;;;;;;;33.90;17.55;;;;;;;;;;5077365;28;20031;-74
2021/01/08 01:50:26;;;;;;;31.63;17.17;;;;;;;;;;5095292;28;20051;-75
2021/01/08 01:52:52;;;;;;;30.10;16.88;;;;;;;;;;5095047;28;20028;-75
2021/01/08 01:55:20;;;;;;;31.33;16.98;;;;;;;;;;5094952;28;20645;-75
2021/01/08 01:57:45;;;;;;;33.53;16.58;;;;;;;;;;5095111;28;20050;-74
2021/01/08 02:00:12;;;;;;;28.95;16.95;;;;;;;;;;5095073;28;20050;-74
2021/01/08 02:02:43;;;;;;;30.38;17.08;;;;;;;;;;5077068;28;20035;-75
2021/01/08 02:05:09;;;;;;;28.98;15.73;;;;;;;;;;5095116;28;20032;-74
2021/01/08 02:07:44;;;;;;;28.27;16.15;;;;;;;;;;5093791;28;20082;-75
2021/01/08 02:10:15;;;;;;;29.02;15.98;;;;;;;;;;5076777;28;20036;-74
2021/01/08 02:12:49;;;;;;;31.58;17.02;;;;;;;;;;5094728;28;20123;-75
2021/01/08 02:15:24;;;;;;;32.58;16.75;;;;;;;;;;5076752;28;20051;-75
2021/01/08 02:17:58;;;;;;;29.40;15.95;;;;;;;;;;5094732;28;20067;-74
2021/01/08 02:20:26;;;;;;;32.53;17.95;;;;;;;;;;5094455;28;20055;-75
2021/01/08 02:23:18;;;;;;;28.17;16.58;;;;;;;;;;5094599;28;20016;-77
2021/01/08 02:25:47;;;;;;;28.70;16.35;;;;;;;;;;5092379;28;20429;-77
2021/01/08 02:28:18;;;;;;;32.33;17.42;;;;;;;;;;5094631;28;20027;-77
2021/01/08 02:30:53;;;;;;;30.08;17.20;;;;;;;;;;5093656;28;20047;-77
2021/01/08 02:33:19;;;;;;;29.13;16.33;;;;;;;;;;5075838;28;20482;-74
2021/01/08 02:35:47;;;;;;;30.95;16.73;;;;;;;;;;5094479;28;20035;-75
2021/01/08 02:38:14;;;;;;;30.35;16.85;;;;;;;;;;5076079;28;20115;-74
2021/01/08 02:40:39;;;;;;;33.45;17.42;;;;;;;;;;5093537;28;20035;-74
2021/01/08 02:43:06;;;;;;;31.08;17.77;;;;;;;;;;5075999;28;20032;-75
2021/01/08 02:45:32;;;;;;;30.30;18.00;;;;;;;;;;5094365;28;20118;-75
2021/01/08 02:47:58;;;;;;;33.33;17.42;;;;;;;;;;5094131;28;20036;-75
2021/01/08 02:50:24;;;;;;;31.00;17.33;;;;;;;;;;5094095;28;20020;-75
2021/01/08 02:52:55;;;;;;;29.58;16.50;;;;;;;;;;5094041;28;20406;-75
2021/01/08 02:55:24;;;;;;;30.63;17.60;;;;;;;;;;5094079;28;20036;-75
2021/01/08 02:57:50;;;;;;;31.85;16.45;;;;;;;;;;5094064;28;20028;-74
2021/01/08 03:00:16;;;;;;;30.58;17.23;;;;;;;;;;5093923;28;20089;-74
2021/01/08 03:02:41;;;;;;;29.63;16.55;;;;;;;;;;5093940;28;20477;-75
2021/01/08 03:05:07;;;;;;;33.05;17.27;;;;;;;;;;5093722;28;20044;-75
2021/01/08 03:07:33;;;;;;;29.30;16.58;;;;;;;;;;5093842;28;20032;-75
2021/01/08 03:09:59;;;;;;;29.77;16.45;;;;;;;;;;5075920;28;20043;-75
2021/01/08 03:12:28;;;;;;;30.95;17.30;;;;;;;;;;5093756;28;20020;-75
2021/01/08 03:14:53;;;;;;;31.70;17.08;;;;;;;;;;5093669;28;20094;-74
2021/01/08 03:17:19;;;;;;;32.47;17.83;;;;;;;;;;5093490;28;20028;-75
2021/01/08 03:19:50;;;;;;;33.20;18.15;;;;;;;;;;5093555;28;20471;-75
2021/01/08 03:22:22;;;;;;;32.15;16.38;;;;;;;;;;5093663;28;20429;-75
2021/01/08 03:24:47;;;;;;;29.90;16.10;;;;;;;;;;5075290;28;20401;-75
2021/01/08 03:27:13;;;;;;;30.98;15.88;;;;;;;;;;5093483;28;20032;-74
2021/01/08 03:29:39;;;;;;;33.20;16.58;;;;;;;;;;5093062;28;20035;-75
2021/01/08 03:32:05;;;;;;;31.00;16.33;;;;;;;;;;5092293;28;20097;-74
2021/01/08 03:34:31;;;;;;;30.48;15.98;;;;;;;;;;5093435;28;20089;-75
2021/01/08 03:36:56;;;;;;;30.10;15.45;;;;;;;;;;5075383;28;20020;-77
2021/01/08 03:39:23;;;;;;;25.95;15.60;;;;;;;;;;5093562;28;20065;-77
2021/01/08 03:41:49;;;;;;;27.27;15.57;;;;;;;;;;5093559;28;20428;-77
2021/01/08 03:44:14;;;;;;;27.88;15.43;;;;;;;;;;5093417;28;20036;-76
2021/01/08 03:46:40;;;;;;;26.80;15.57;;;;;;;;;;5093681;28;20080;-76
2021/01/08 03:49:06;;;;;;;29.75;15.80;;;;;;;;;;5093390;28;20040;-76
2021/01/08 03:51:32;;;;;;;30.83;17.08;;;;;;;;;;5093261;28;20068;-76
2021/01/08 03:53:57;;;;;;;30.25;17.60;;;;;;;;;;5097218;28;20093;-77
2021/01/08 03:56:24;;;;;;;31.90;18.65;;;;;;;;;;5097512;28;20491;-77
2021/01/08 03:58:49;;;;;;;28.70;17.60;;;;;;;;;;5097459;28;20059;-76
2021/01/08 04:01:15;;;;;;;28.45;17.42;;;;;;;;;;5079272;28;20466;-75
2021/01/08 04:03:40;;;;;;;33.08;17.20;;;;;;;;;;5097254;28;20039;-76
2021/01/08 04:06:10;;;;;;;30.48;17.20;;;;;;;;;;5097228;28;20027;-75
2021/01/08 04:08:35;;;;;;;31.77;17.73;;;;;;;;;;5097232;28;20237;-76
2021/01/08 04:11:02;;;;;;;31.20;17.30;;;;;;;;;;5097245;28;20559;-77
2021/01/08 04:13:28;;;;;;;30.48;18.02;;;;;;;;;;5079013;28;20047;-76
2021/01/08 04:15:54;;;;;;;31.92;17.77;;;;;;;;;;5097028;28;20107;-75
2021/01/08 04:18:21;;;;;;;31.02;17.83;;;;;;;;;;5078931;28;20166;-76
2021/01/08 04:20:47;;;;;;;32.63;18.75;;;;;;;;;;5097137;28;20026;-76
2021/01/08 04:23:13;;;;;;;27.48;17.90;;;;;;;;;;5095556;28;20032;-75
2021/01/08 04:25:38;;;;;;;33.88;18.20;;;;;;;;;;5078947;28;20036;-77
2021/01/08 04:28:05;;;;;;;30.13;17.73;;;;;;;;;;5097355;28;20085;-77
2021/01/08 04:30:30;;;;;;;30.83;17.73;;;;;;;;;;5074284;28;20059;-76
2021/01/08 04:32:56;;;;;;;33.33;19.60;;;;;;;;;;5075174;28;20123;-76
2021/01/08 04:35:21;;;;;;;35.15;19.70;;;;;;;;;;5076578;28;20029;-75
2021/01/08 04:37:47;;;;;;;35.33;20.17;;;;;;;;;;5076458;28;20036;-75
2021/01/08 04:40:13;;;;;;;38.47;19.75;;;;;;;;;;5076645;28;20089;-75
2021/01/08 04:42:38;;;;;;;36.42;20.63;;;;;;;;;;5076585;28;20028;-76
2021/01/08 04:45:04;;;;;;;38.78;21.55;;;;;;;;;;5076204;28;20390;-75
2021/01/08 04:47:31;;;;;;;39.20;21.38;;;;;;;;;;5076199;28;20044;-76
2021/01/08 04:49:58;;;;;;;38.75;22.27;;;;;;;;;;5076285;28;20033;-76
2021/01/08 04:52:32;;;;;;;59.72;29.77;;;;;;;;;;5076146;28;20036;-76
2021/01/08 04:55:07;;;;;;;61.97;30.75;;;;;;;;;;5075941;28;20048;-75
2021/01/08 04:57:34;;;;;;;66.35;32.42;;;;;;;;;;5074635;28;20051;-76
2021/01/08 05:00:00;;;;;;;58.08;28.85;;;;;;;;;;5075982;28;20032;-76
2021/01/08 05:02:25;;;;;;;50.90;26.20;;;;;;;;;;5074782;28;20044;-76
2021/01/08 05:04:52;;;;;;;54.35;27.92;;;;;;;;;;5074468;28;20158;-76
2021/01/08 05:07:17;;;;;;;49.35;24.85;;;;;;;;;;5091586;28;20438;-76
2021/01/08 05:09:43;;;;;;;48.97;26.17;;;;;;;;;;5074751;28;20027;-76
2021/01/08 05:12:09;;;;;;;45.72;24.95;;;;;;;;;;5075890;28;20094;-76
2021/01/08 05:14:36;;;;;;;46.60;25.88;;;;;;;;;;5074450;28;20123;-76
2021/01/08 05:17:03;;;;;;;53.85;26.52;;;;;;;;;;5075502;28;20040;-76
2021/01/08 05:19:28;;;;;;;66.95;35.67;;;;;;;;;;5075518;28;20040;-77
2021/01/08 05:21:54;;;;;;;60.58;32.85;;;;;;;;;;5075488;28;20613;-69
2021/01/08 05:24:28;;;;;;;73.15;36.58;;;;;;;;;;5075481;28;20028;-76
2021/01/08 05:26:55;;;;;;;45.85;25.27;;;;;;;;;;5075521;28;20040;-76
2021/01/08 05:29:23;;;;;;;44.78;22.85;;;;;;;;;;5075460;28;20028;-78
2021/01/08 05:31:51;;;;;;;43.03;23.75;;;;;;;;;;5094702;28;20566;-77
2021/01/08 05:34:28;;;;;;;44.53;23.35;;;;;;;;;;5095586;28;20398;-77
2021/01/08 05:36:56;;;;;;;43.80;23.27;;;;;;;;;;5095569;28;20130;-77
2021/01/08 05:39:23;;;;;;;45.65;22.30;;;;;;;;;;5077248;28;20032;-77
2021/01/08 05:41:52;;;;;;;42.00;23.08;;;;;;;;;;5095580;28;20375;-77
2021/01/08 05:44:19;;;;;;;40.83;22.13;;;;;;;;;;5077258;28;20390;-77
2021/01/08 05:46:48;;;;;;;39.63;22.42;;;;;;;;;;5077407;28;20032;-78
2021/01/08 05:49:14;;;;;;;46.65;24.30;;;;;;;;;;5077229;28;20481;-79
2021/01/08 05:51:41;;;;;;;51.15;25.85;;;;;;;;;;5095454;28;20036;-78
2021/01/08 05:54:06;;;;;;;54.28;26.13;;;;;;;;;;5095305;28;20028;-79
2021/01/08 05:56:40;;;;;;;56.20;29.25;;;;;;;;;;5094951;28;20043;-78
2021/01/08 05:59:06;;;;;;;68.97;34.25;;;;;;;;;;5095270;28;20036;-78
2021/01/08 06:01:32;;;;;;;64.50;34.95;;;;;;;;;;5094949;28;20517;-76
2021/01/08 06:03:58;;;;;;;86.75;41.30;;;;;;;;;;5094788;28;20036;-77
2021/01/08 06:06:27;;;;;;;93.97;43.17;;;;;;;;;;5095193;28;20032;-76
2021/01/08 06:08:54;;;;;;;74.30;35.33;;;;;;;;;;5095210;28;20374;-77
2021/01/08 06:11:35;;;;;;;59.88;33.22;;;;;;;;;;5076713;28;20070;-78
2021/01/08 06:14:01;;;;;;;68.55;36.53;;;;;;;;;;5094606;28;20047;-77
2021/01/08 06:16:39;;;;;;;37.03;21.88;;;;;;;;;;5093984;28;20031;-77
2021/01/08 06:19:04;;;;;;;35.50;20.80;;;;;;;;;;5094385;28;20039;-77
2021/01/08 06:21:35;;;;;;;37.75;21.60;;;;;;;;;;5093217;28;20390;-77
2021/01/08 06:24:02;;;;;;;;;;;;;;;;;;5074014;28;20067;-77
2021/01/08 06:26:31;;;;;;;32.10;19.17;;;;;;;;;;5094770;28;19914;-78
2021/01/08 06:29:01;;;;;;;32.13;19.73;;;;;;;;;;5094641;28;20081;-77
2021/01/08 06:31:44;;;;;;;31.23;20.23;;;;;;;;;;5091561;28;20113;-78
2021/01/08 06:34:10;;;;;;;36.67;22.08;;;;;;;;;;5058413;28;20045;-77
2021/01/08 06:36:44;;;;;;;35.63;23.30;;;;;;;;;;5054414;28;20021;-77
2021/01/08 06:39:11;;;;;;;51.60;32.88;;;;;;;;;;5054269;28;20033;-77
2021/01/08 06:41:40;;;;;;;47.95;28.30;;;;;;;;;;5054139;28;20048;-78
2021/01/08 06:44:06;;;;;;;69.80;33.78;;;;;;;;;;5036272;28;20064;-77
2021/01/08 06:46:37;;;;;;;80.18;35.13;;;;;;;;;;5036190;28;20064;-77
2021/01/08 06:49:02;;;;;;;77.45;31.08;;;;;;;;;;5069310;28;20090;-77
2021/01/08 06:51:31;;;;;;;252.90;122.10;;;;;;;;;;5073722;28;20020;-77
2021/01/08 06:54:00;;;;;;;233.73;121.35;;;;;;;;;;5046666;28;20038;-77
2021/01/08 06:56:27;;;;;;;409.27;234.98;;;;;;;;;;5049192;28;20105;-76
2021/01/08 06:58:57;;;;;;;68.60;39.00;;;;;;;;;;5055240;28;20037;-77
2021/01/08 07:01:25;;;;;;;66.07;37.50;;;;;;;;;;5073686;28;20041;-76
2021/01/08 07:03:51;;;;;;;36.63;22.10;;;;;;;;;;5073680;28;20036;-77
2021/01/08 07:06:17;;;;;;;31.48;20.27;;;;;;;;;;5073594;28;20035;-77
2021/01/08 07:08:42;;;;;;;31.48;20.00;;;;;;;;;;5073978;28;20123;-77
2021/01/08 07:11:30;;;;;;;75.25;36.33;;;;;;;;;;5070991;28;20031;-77
2021/01/08 07:14:04;;;;;;;105.75;48.35;;;;;;;;;;5067073;28;20052;-77
2021/01/08 07:16:30;;;;;;;342.05;155.00;;;;;;;;;;5055539;28;20045;-77
2021/01/08 07:19:10;;;;;;;312.20;137.55;;;;;;;;;;5042336;28;20032;-77
2021/01/08 07:21:41;;;;;;;92.85;46.88;;;;;;;;;;5069870;28;20047;-77
2021/01/08 07:24:06;;;;;;;;;;;;;;;;;;5036260;28;20116;-77
2021/01/08 07:26:33;;;;;;;48.42;25.73;;;;;;;;;;5063640;28;20398;-78
2021/01/08 07:28:59;;;;;;;56.30;29.42;;;;;;;;;;5061000;28;20086;-77
2021/01/08 07:31:31;;;;;;;53.97;27.00;;;;;;;;;;5081415;28;20130;-76
2021/01/08 07:33:57;;;;;;;65.05;29.17;;;;;;;;;;5087228;28;20031;-77
2021/01/08 07:36:25;;;;;;;64.15;29.02;;;;;;;;;;5081312;28;20032;-77
2021/01/08 07:38:53;;;;;;;56.15;26.33;;;;;;;;;;5085152;28;20036;-77
2021/01/08 07:41:40;;;;;;;52.28;25.02;;;;;;;;;;5081670;28;20029;-77
2021/01/08 07:44:32;;;;;;;49.65;22.85;;;;;;;;;;5071949;28;20165;-78
2021/01/08 07:47:18;;;;;;;54.55;24.35;;;;;;;;;;5069097;28;20501;-77
2021/01/08 07:50:03;;;;;;;52.35;23.85;;;;;;;;;;5055017;28;20507;-78
2021/01/08 07:52:38;;;;;;;58.05;25.00;;;;;;;;;;5073236;28;20394;-77
2021/01/08 07:55:08;;;;;;;44.17;23.38;;;;;;;;;;5073051;28;20032;-76
2021/01/08 07:57:58;;;;;;;38.70;22.23;;;;;;;;;;5073076;28;20084;-77
2021/01/08 08:00:26;;;;;;;39.47;23.70;;;;;;;;;;5042093;28;20036;-78
2021/01/08 08:06:36;;;;;;;40.20;25.88;;;;;;;;;;5073619;28;20051;-78
2021/01/08 08:09:06;;;;;;;39.85;23.50;;;;;;;;;;5074959;28;20486;-79
2021/01/08 08:11:33;;;;;;;95.78;61.50;;;;;;;;;;5077451;28;20028;-78
2021/01/08 08:13:59;;;;;;;84.22;55.55;;;;;;;;;;5081548;28;20456;-73
2021/01/08 08:16:37;;;;;;;66.65;42.92;;;;;;;;;;5081877;28;20035;-73
2021/01/08 08:19:04;;;;;;;70.10;44.45;;;;;;;;;;5081520;28;20060;-73
2021/01/08 08:21:29;;;;;;;59.15;36.38;;;;;;;;;;5055047;28;20037;-73
2021/01/08 08:23:59;;;;;;;40.72;25.20;;;;;;;;;;5075345;28;20040;-73
2021/01/08 08:26:25;;;;;;;48.65;30.05;;;;;;;;;;5064506;28;20539;-73
2021/01/08 08:29:07;;;;;;;43.63;27.13;;;;;;;;;;5083945;28;20074;-67
2021/01/08 08:31:33;;;;;;;43.58;26.17;;;;;;;;;;5083080;28;20075;-67
2021/01/08 08:33:59;;;;;;;45.40;27.55;;;;;;;;;;5079352;28;20563;-67
2021/01/08 08:36:27;;;;;;;47.88;27.48;;;;;;;;;;5072612;28;20482;-67
2021/01/08 08:38:56;;;;;;;69.63;39.42;;;;;;;;;;5074464;28;20440;-67
2021/01/08 08:41:21;;;;;;;63.42;35.50;;;;;;;;;;5080203;28;20058;-67
2021/01/08 08:43:47;;;;;;;80.30;44.42;;;;;;;;;;5083517;28;20036;-67
2021/01/08 08:46:12;;;;;;;89.95;49.95;;;;;;;;;;5085978;28;20040;-66
2021/01/08 08:48:39;;;;;;;87.60;46.08;;;;;;;;;;5091584;28;20032;-67
2021/01/08 08:51:05;;;;;;;68.13;37.22;;;;;;;;;;5085759;28;20429;-72
2021/01/08 08:53:30;;;;;;;77.95;44.15;;;;;;;;;;5079952;28;20111;-72
2021/01/08 08:55:55;;;;;;;70.45;38.92;;;;;;;;;;5076022;28;20033;-72
2021/01/08 08:58:21;;;;;;;61.03;33.10;;;;;;;;;;5074940;28;20113;-72
2021/01/08 09:00:46;;;;;;;54.88;31.10;;;;;;;;;;5076020;28;20032;-72
2021/01/08 09:03:23;;;;;;;57.80;32.25;;;;;;;;;;5076489;28;20138;-79
2021/01/08 09:05:51;;;;;;;45.30;26.98;;;;;;;;;;5076164;28;20063;-78
2021/01/08 09:08:36;;;;;;;39.75;25.10;;;;;;;;;;5082794;28;20166;-79
2021/01/08 09:11:25;;;;;;;47.85;26.80;;;;;;;;;;5077243;28;20225;-79
2021/01/08 09:13:59;;;;;;;37.13;22.45;;;;;;;;;;5096012;28;20043;-79
2021/01/08 09:16:59;;;;;;;34.47;19.35;;;;;;;;;;5096047;28;20043;-79
2021/01/08 09:19:26;;;;;;;35.15;19.52;;;;;;;;;;5055098;28;20036;-79
2021/01/08 09:21:56;;;;;;;34.63;20.02;;;;;;;;;;5095952;28;20120;-80
2021/01/08 09:24:29;;;;;;;32.30;19.85;;;;;;;;;;5078026;28;20093;-65
2021/01/08 09:27:03;;;;;;;30.65;19.13;;;;;;;;;;5095902;28;20028;-78
2021/01/08 09:29:29;;;;;;;30.88;19.60;;;;;;;;;;5095637;28;20044;-78
2021/01/08 09:31:56;;;;;;;30.05;20.40;;;;;;;;;;5095653;28;20426;-77
2021/01/08 09:34:23;;;;;;;32.92;19.65;;;;;;;;;;5077486;28;20040;-77
2021/01/08 09:36:49;;;;;;;36.03;21.10;;;;;;;;;;5095478;28;20073;-77
2021/01/08 09:39:15;;;;;;;34.80;20.33;;;;;;;;;;5077338;28;20402;-78
2021/01/08 09:41:41;;;;;;;30.20;17.65;;;;;;;;;;5077267;28;20028;-78
2021/01/08 09:44:11;;;;;;;32.80;18.52;;;;;;;;;;5095636;28;20619;-78
2021/01/08 09:49:40;;;;;;;28.08;18.42;;;;;;;;;;5077288;28;20058;-79
2021/01/08 09:52:13;;;;;;;28.92;17.90;;;;;;;;;;5095031;28;20035;-78
2021/01/08 09:54:51;;;;;;;30.75;17.27;;;;;;;;;;5094909;28;20040;-79
2021/01/08 09:57:29;;;;;;;29.70;18.58;;;;;;;;;;5077118;28;20047;-78
2021/01/08 09:59:57;;;;;;;28.70;17.02;;;;;;;;;;5095415;28;20032;-78
2021/01/08 10:05:19;;;;;;;29.23;19.25;;;;;;;;;;5094893;28;20032;-78
2021/01/08 10:07:45;;;;;;;33.72;20.73;;;;;;;;;;5094974;28;20123;-78
2021/01/08 10:10:13;;;;;;;28.42;17.75;;;;;;;;;;5094792;28;20043;-78
2021/01/08 10:12:45;;;;;;;26.88;17.48;;;;;;;;;;5094249;28;20150;-73
2021/01/08 10:15:12;;;;;;;28.02;18.02;;;;;;;;;;5076674;28;20044;-73
2021/01/08 10:17:46;;;;;;;27.85;17.23;;;;;;;;;;5076215;28;20394;-73
2021/01/08 10:20:16;;;;;;;26.25;16.63;;;;;;;;;;5094343;28;20054;-73
2021/01/08 10:22:45;;;;;;;32.35;18.88;;;;;;;;;;5094583;28;20028;-73
2021/01/08 10:25:27;;;;;;;32.08;19.90;;;;;;;;;;5094509;28;20032;-73
2021/01/08 10:27:54;;;;;;;33.38;19.90;;;;;;;;;;5094350;28;20131;-73
2021/01/08 10:30:20;;;;;;;30.58;17.60;;;;;;;;;;5070797;28;20041;-73
2021/01/08 10:32:46;;;;;;;45.47;25.17;;;;;;;;;;5074201;28;20063;-73
2021/01/08 10:35:12;;;;;;;92.57;41.17;;;;;;;;;;5074010;28;20036;-73
2021/01/08 10:37:38;;;;;;;81.65;35.33;;;;;;;;;;5056082;28;20041;-73
2021/01/08 10:40:03;;;;;;;63.47;29.13;;;;;;;;;;5056162;28;20025;-73
2021/01/08 10:42:29;;;;;;;70.88;33.90;;;;;;;;;;5074068;28;20044;-73
2021/01/08 10:44:55;;;;;;;77.68;36.22;;;;;;;;;;5073830;28;20032;-74
2021/01/08 10:47:20;;;;;;;48.53;25.52;;;;;;;;;;5056032;28;20064;-72
2021/01/08 10:49:45;;;;;;;36.70;21.25;;;;;;;;;;5073792;28;20047;-72
2021/01/08 10:52:12;;;;;;;32.17;18.63;;;;;;;;;;5070399;28;20056;-72
2021/01/08 10:54:37;;;;;;;35.08;18.90;;;;;;;;;;5061037;28;20049;-78
2021/01/08 10:57:03;;;;;;;31.55;20.70;;;;;;;;;;5062332;28;20575;-77
2021/01/08 10:59:29;;;;;;;34.33;20.48;;;;;;;;;;5047622;28;20036;-77
2021/01/08 11:01:55;;;;;;;41.63;25.42;;;;;;;;;;5044254;28;20063;-77
2021/01/08 11:04:20;;;;;;;45.55;25.23;;;;;;;;;;5060610;28;20053;-78
2021/01/08 11:06:46;;;;;;;54.33;29.70;;;;;;;;;;5062874;28;20483;-78
2021/01/08 11:09:13;;;;;;;32.35;19.23;;;;;;;;;;5048663;28;20041;-78
2021/01/08 11:11:39;;;;;;;27.88;16.80;;;;;;;;;;5059596;28;20060;-77
2021/01/08 11:14:05;;;;;;;25.95;15.35;;;;;;;;;;5064052;28;20073;-77
2021/01/08 11:16:31;;;;;;;27.10;16.95;;;;;;;;;;5064431;28;20041;-77
2021/01/08 11:18:59;;;;;;;30.08;18.50;;;;;;;;;;5036014;28;20033;-77
2021/01/08 11:21:24;;;;;;;24.13;15.38;;;;;;;;;;5037208;28;20020;-77
2021/01/08 11:23:51;;;;;;;24.52;16.05;;;;;;;;;;5045689;28;20037;-78
2021/01/08 11:26:26;;;;;;;22.48;13.02;;;;;;;;;;5055576;28;20032;-78
2021/01/08 11:28:57;;;;;;;22.83;13.38;;;;;;;;;;5074115;28;20045;-77
2021/01/08 11:31:34;;;;;;;27.15;16.33;;;;;;;;;;5055196;28;20406;-78
2021/01/08 11:34:00;;;;;;;18.67;12.02;;;;;;;;;;5073501;28;20561;-73
2021/01/08 11:36:25;;;;;;;21.23;12.57;;;;;;;;;;5073196;28;20113;-72
2021/01/08 11:38:51;;;;;;;20.38;13.25;;;;;;;;;;5073417;28;20036;-72
2021/01/08 11:41:17;;;;;;;20.27;13.98;;;;;;;;;;5055326;28;20095;-72
2021/01/08 11:43:42;;;;;;;20.60;12.93;;;;;;;;;;5055555;28;20032;-72
2021/01/08 11:46:08;;;;;;;19.85;11.52;;;;;;;;;;5055480;28;20087;-72
2021/01/08 11:48:34;;;;;;;21.50;11.85;;;;;;;;;;5073074;28;20040;-72
2021/01/08 11:50:59;;;;;;;20.15;12.55;;;;;;;;;;5071100;28;20064;-72
2021/01/08 11:53:25;;;;;;;26.98;14.80;;;;;;;;;;5048263;28;20032;-72
2021/01/08 11:55:50;;;;;;;23.08;13.43;;;;;;;;;;5073165;28;20082;-72
2021/01/08 11:58:16;;;;;;;20.98;12.55;;;;;;;;;;5068317;28;20061;-72
2021/01/08 12:00:41;;;;;;;17.27;11.25;;;;;;;;;;5053353;28;20021;-72
2021/01/08 12:03:07;;;;;;;19.38;11.82;;;;;;;;;;5038114;28;20033;-72
2021/01/08 12:05:32;;;;;;;18.17;12.25;;;;;;;;;;5066571;28;20031;-72
2021/01/08 12:07:58;;;;;;;24.90;15.18;;;;;;;;;;5058591;28;20037;-72
2021/01/08 12:10:24;;;;;;;18.95;12.90;;;;;;;;;;5035274;28;20063;-71
2021/01/08 12:12:50;;;;;;;17.73;11.75;;;;;;;;;;5053331;28;20033;-71
2021/01/08 12:15:16;;;;;;;24.80;14.48;;;;;;;;;;5056789;28;20429;-71
2021/01/08 12:17:43;;;;;;;19.95;12.35;;;;;;;;;;5062099;28;20489;-71
2021/01/08 12:20:11;;;;;;;20.05;11.27;;;;;;;;;;5040944;28;20380;-71
2021/01/08 12:22:36;;;;;;;22.17;12.75;;;;;;;;;;5056588;28;20033;-71
2021/01/08 12:25:02;;;;;;;21.58;13.32;;;;;;;;;;5056992;28;20020;-71
2021/01/08 12:27:28;;;;;;;14.05;9.02;;;;;;;;;;5046766;28;20041;-71
2021/01/08 12:29:53;;;;;;;16.10;10.25;;;;;;;;;;5047240;28;20039;-72
2021/01/08 12:32:19;;;;;;;16.10;11.00;;;;;;;;;;5052029;28;20051;-71
2021/01/08 12:34:45;;;;;;;13.48;10.40;;;;;;;;;;5076578;28;20045;-71
2021/01/08 12:37:10;;;;;;;11.13;8.05;;;;;;;;;;5076153;28;20044;-71
2021/01/08 12:39:36;;;;;;;13.20;9.48;;;;;;;;;;5075071;28;20025;-71
2021/01/08 12:42:02;;;;;;;12.35;8.25;;;;;;;;;;5076206;28;20040;-71
2021/01/08 12:44:28;;;;;;;12.43;8.32;;;;;;;;;;5076301;28;20028;-72
2021/01/08 12:46:57;;;;;;;13.88;9.20;;;;;;;;;;5076402;28;20101;-72
2021/01/08 12:49:22;;;;;;;12.70;8.27;;;;;;;;;;5076576;28;20039;-72
2021/01/08 12:51:49;;;;;;;11.50;7.85;;;;;;;;;;5057958;28;20045;-71
2021/01/08 12:54:15;;;;;;;14.38;9.20;;;;;;;;;;5082197;28;20036;-72
2021/01/08 12:56:41;;;;;;;14.85;9.07;;;;;;;;;;5089848;28;20492;-71
2021/01/08 12:59:07;;;;;;;16.17;9.02;;;;;;;;;;5078466;28;20024;-71
2021/01/08 13:01:33;;;;;;;17.20;9.90;;;;;;;;;;5096215;28;20441;-71
2021/01/08 13:03:58;;;;;;;16.08;9.50;;;;;;;;;;5081278;28;20025;-71
2021/01/08 13:06:26;;;;;;;16.95;9.95;;;;;;;;;;5074770;28;20041;-71
2021/01/08 13:08:51;;;;;;;17.55;10.57;;;;;;;;;;5075997;28;20078;-71
2021/01/08 13:11:17;;;;;;;20.27;11.13;;;;;;;;;;5080729;28;20040;-80
2021/01/08 13:13:47;;;;;;;18.67;10.93;;;;;;;;;;5073426;28;20036;-80
2021/01/08 13:16:23;;;;;;;15.88;9.82;;;;;;;;;;5077813;28;20036;-79
2021/01/08 13:18:51;;;;;;;28.23;14.77;;;;;;;;;;5095454;28;20039;-79
2021/01/08 13:21:23;;;;;;;27.65;15.85;;;;;;;;;;5096055;28;20085;-79
2021/01/08 13:23:49;;;;;;;26.15;13.68;;;;;;;;;;5095375;28;20036;-79
2021/01/08 13:26:24;;;;;;;25.10;14.10;;;;;;;;;;5095552;28;20378;-79
2021/01/08 13:28:50;;;;;;;20.95;12.70;;;;;;;;;;5095683;28;20032;-80
2021/01/08 13:31:22;;;;;;;21.15;13.40;;;;;;;;;;5095088;28;20036;-79
2021/01/08 13:33:48;;;;;;;19.77;12.48;;;;;;;;;;5095595;28;20035;-79
2021/01/08 13:36:13;;;;;;;22.98;13.98;;;;;;;;;;5095486;28;20386;-79
2021/01/08 13:38:39;;;;;;;21.88;14.30;;;;;;;;;;5077411;28;20043;-79
2021/01/08 13:41:04;;;;;;;23.65;15.48;;;;;;;;;;5077364;28;20025;-79
2021/01/08 13:43:33;;;;;;;25.42;14.80;;;;;;;;;;5095264;28;20028;-79
2021/01/08 13:45:58;;;;;;;24.40;16.15;;;;;;;;;;5077267;28;20032;-79
2021/01/08 13:48:24;;;;;;;25.50;15.82;;;;;;;;;;5094945;28;20039;-79
2021/01/08 13:50:49;;;;;;;35.15;18.42;;;;;;;;;;5095452;28;20039;-79
2021/01/08 13:53:15;;;;;;;42.92;21.83;;;;;;;;;;5095226;28;20043;-79
2021/01/08 13:55:40;;;;;;;44.83;21.60;;;;;;;;;;5077104;28;20028;-78
2021/01/08 13:58:06;;;;;;;49.00;24.10;;;;;;;;;;5077051;28;20078;-78
2021/01/08 14:00:31;;;;;;;59.47;26.52;;;;;;;;;;5095005;28;20069;-78
2021/01/08 14:02:58;;;;;;;50.10;25.65;;;;;;;;;;5095130;28;20102;-78
2021/01/08 14:05:23;;;;;;;47.70;23.58;;;;;;;;;;5084018;28;20479;-78
2021/01/08 14:07:49;;;;;;;48.45;23.85;;;;;;;;;;5073583;28;20036;-79
2021/01/08 14:10:17;;;;;;;33.55;17.95;;;;;;;;;;5085592;28;20028;-79
2021/01/08 14:12:48;;;;;;;27.63;15.52;;;;;;;;;;5084475;28;20078;-78
2021/01/08 14:15:17;;;;;;;26.05;14.00;;;;;;;;;;5066867;28;20123;-78
2021/01/08 14:17:47;;;;;;;26.73;15.93;;;;;;;;;;5073628;28;20031;-78
2021/01/08 14:20:14;;;;;;;31.40;17.23;;;;;;;;;;5082022;28;20028;-78
2021/01/08 14:22:46;;;;;;;30.27;16.55;;;;;;;;;;5094748;28;20024;-79
2021/01/08 14:25:12;;;;;;;30.17;17.90;;;;;;;;;;5094625;28;20054;-79
2021/01/08 14:27:44;;;;;;;34.65;19.08;;;;;;;;;;5094697;28;20477;-79
2021/01/08 14:30:09;;;;;;;32.70;19.92;;;;;;;;;;5076010;28;20041;-80
2021/01/08 14:32:41;;;;;;;34.70;19.73;;;;;;;;;;5087492;28;20406;-80
2021/01/08 14:35:08;;;;;;;40.92;23.05;;;;;;;;;;5088368;28;20109;-79